Latest Weather Observations for Yunta

IDS60801

Issued at 4:05 pm CDT Saturday 25 October 2014 (issued every 30 minutes, with the page automatically refreshed every 10 minutes)

About weather observations | Map of weather stations | Latest weather observations for SA | Other Formats
Station Details ID: 020062 Name: YUNTA AIRSTRIP Lat: -32.57 Lon: 139.56 Height: 300.0 m
Data from the previous 72 hours. | See also: Recent months at Yunta
Date/Time
CDT
Temp
°C
App
Temp
°C
Dew
Point
Rel
Hum
%
Delta-T
°C
Wind Press
QNH
hPa
Press
MSL
hPa
Rain
since 9 am
mm
Dir
 
Spd
km/h
Gust
km/h
Spd
kts
Gust
kts
25/04:00pm 35.5 26.8 -0.8 10 18.0 W 35 52 19 28 1013.0 1012.4 0.0
25/03:52pm 36.2 27.9 -0.2 10 18.3 W 33 54 18 29 1013.1 1012.5 0.0
25/03:30pm 35.5 25.6 -0.8 10 18.0 W 41 54 22 29 1013.2 1012.6 0.0
25/03:00pm 35.4 27.0 -0.8 10 17.9 W 33 48 18 26 1013.3 1012.7 0.0
25/02:35pm 35.5 25.8 0.6 11 17.7 W 41 46 22 25 1013.5 1012.9 0.0
25/02:30pm 35.2 27.9 0.3 11 17.6 WSW 28 43 15 23 1013.6 1013.0 0.0
25/02:00pm 35.2 28.1 1.5 12 17.3 WSW 28 43 15 23 1013.7 1013.1 0.0
25/01:45pm 35.1 27.8 0.2 11 17.5 WSW 28 50 15 27 1013.7 1013.1 0.0
25/01:30pm 35.5 28.1 1.8 12 17.4 SW 30 43 16 23 1013.9 1013.3 0.0
25/01:00pm 32.8 29.4 1.8 14 15.8 SSW 9 26 5 14 1014.2 1013.6 0.0
25/12:30pm 32.1 27.9 4.0 17 14.7 SSW 15 22 8 12 1014.7 1014.1 0.0
25/12:00pm 30.8 26.9 5.3 20 13.6 SSW 15 26 8 14 1015.6 1014.9 0.0
25/11:30am 28.2 25.5 5.7 24 11.9 SW 9 20 5 11 1016.1 1015.5 0.0
25/11:00am 27.3 24.3 6.1 26 11.2 SSW 11 17 6 9 1016.4 1015.8 0.0
25/10:30am 26.0 23.1 6.6 29 10.3 SSW 11 19 6 10 1016.7 1016.1 0.0
25/10:00am 24.2 20.6 6.9 33 9.1 SSW 15 20 8 11 1016.9 1016.3 0.0
25/09:30am 22.7 20.2 8.0 39 7.8 SSW 11 17 6 9 1016.7 1016.1 0.0
25/09:00am 20.8 18.4 8.8 46 6.4 SSW 11 15 6 8 1016.8 1016.2 0.0
25/08:30am 19.5 17.6 9.1 51 5.5 S 9 13 5 7 1016.3 1015.7 0.0
25/08:00am 17.9 15.7 9.3 57 4.6 SSW 11 15 6 8 1016.5 1015.9 0.0
25/07:30am 17.7 15.5 9.3 58 4.5 SSW 11 15 6 8 1016.2 1015.6 0.0
25/07:00am 16.1 14.3 9.3 64 3.6 SSW 9 13 5 7 1015.8 1015.2 0.0
25/06:30am 15.3 13.7 8.8 65 3.4 SSW 7 9 4 5 1015.5 1014.8 0.0
25/06:00am 15.4 13.9 8.6 64 3.5 SW 6 9 3 5 1015.2 1014.6 0.0
25/05:30am 15.7 13.6 8.4 62 3.8 SW 9 11 5 6 1014.9 1014.3 0.0
25/05:00am 16.3 15.0 7.5 56 4.5 SSW 4 6 2 3 1014.3 1013.7 0.0
25/04:30am 17.3 15.5 7.9 54 4.8 SW 7 9 4 5 1014.5 1013.9 0.0
25/04:00am 17.7 15.7 6.9 49 5.5 SW 7 9 4 5 1014.4 1013.8 0.0
25/03:30am 18.6 16.4 6.1 44 6.3 SW 7 9 4 5 1014.2 1013.6 0.0
25/03:00am 19.5 17.2 5.9 41 6.8 SSW 7 11 4 6 1014.2 1013.6 0.0
25/02:30am 20.3 18.9 5.5 38 7.4 SSW 2 4 1 2 1013.9 1013.3 0.0
25/02:00am 21.4 18.3 5.7 36 8.0 WSW 11 13 6 7 1014.2 1013.6 0.0
25/01:30am 22.7 18.0 5.2 32 8.9 SSW 19 30 10 16 1014.0 1013.4 0.0
25/01:00am 25.2 20.4 2.6 23 11.1 NNW 17 19 9 10 1013.5 1012.9 0.0
25/12:30am 25.4 20.9 2.2 22 11.3 NNW 15 17 8 9 1013.6 1013.0 0.0
25/12:00am 26.4 22.1 3.0 22 11.7 NNW 15 17 8 9 1013.8 1013.2 0.0
 
Date/Time
CDT
Temp
°C
App
Temp
°C
Dew
Point
Rel
Hum
%
Delta-T
°C
Wind Press
QNH
hPa
Press
MSL
hPa
Rain
since 9 am
mm
Dir
 
Spd
km/h
Gust
km/h
Spd
kts
Gust
kts
24/11:30pm 26.8 22.0 2.7 21 12.0 NNW 17 19 9 10 1013.9 1013.3 0.0
24/11:00pm 26.9 22.5 2.7 21 12.0 NNW 15 17 8 9 1014.0 1013.4 0.0
24/10:30pm 27.1 22.7 2.9 21 12.1 NNW 15 17 8 9 1014.1 1013.5 0.0
24/10:00pm 27.5 23.1 2.6 20 12.4 NNW 15 17 8 9 1014.1 1013.5 0.0
24/09:30pm 27.4 23.0 2.5 20 12.4 N 15 17 8 9 1013.9 1013.3 0.0
24/09:00pm 28.4 24.4 2.6 19 12.9 NNW 13 17 7 9 1013.9 1013.3 0.0
24/08:30pm 29.8 25.3 2.1 17 13.9 N 15 19 8 10 1013.5 1012.9 0.0
24/08:00pm 31.0 26.4 1.4 15 14.8 N 15 20 8 11 1013.3 1012.7 0.0
24/07:30pm 32.7 27.4 1.7 14 15.7 N 19 24 10 13 1013.0 1012.4 0.0
24/07:00pm 34.1 28.2 1.8 13 16.5 N 22 30 12 16 1012.5 1011.8 0.0
24/06:30pm 34.7 29.3 1.1 12 17.1 N 19 28 10 15 1012.4 1011.7 0.0
24/06:00pm 35.4 30.1 1.7 12 17.4 NW 19 26 10 14 1012.4 1011.7 0.0
24/05:30pm 35.1 30.9 1.5 12 17.2 N 13 17 7 9 1012.2 1011.5 0.0
24/05:00pm 35.5 31.1 0.6 11 17.7 N 13 24 7 13 1012.3 1011.6 0.0
24/04:30pm 36.1 32.2 1.0 11 18.0 NW 11 26 6 14 1012.4 1011.7 0.0
24/04:00pm 35.1 29.9 0.2 11 17.5 NW 17 28 9 15 1012.6 1011.9 0.0
24/03:30pm 35.9 30.2 -0.5 10 18.2 NNW 19 33 10 18 1012.8 1012.2 0.0
24/03:00pm 35.4 30.8 -0.8 10 17.9 WNW 13 15 7 8 1013.2 1012.6 0.0
24/02:30pm 35.3 28.6 -0.9 10 17.9 NW 24 39 13 21 1013.6 1013.0 0.0
24/02:00pm 35.6 30.5 0.6 11 17.7 NNW 17 28 9 15 1013.9 1013.3 0.0
24/01:30pm 34.4 29.5 -0.3 11 17.2 NNW 15 24 8 13 1014.3 1013.7 0.0
24/01:00pm 33.5 27.7 0.2 12 16.6 N 20 30 11 16 1014.6 1014.0 0.0
24/12:30pm 33.1 28.6 -0.1 12 16.4 NW 13 20 7 11 1014.8 1014.2 0.0
24/12:00pm 31.9 26.9 1.1 14 15.4 N 17 20 9 11 1015.1 1014.5 0.0
24/11:30am 32.5 26.8 0.6 13 15.9 N 20 28 11 15 1015.2 1014.6 0.0
24/11:00am 30.9 26.1 0.3 14 15.0 NNW 15 20 8 11 1015.6 1014.9 0.0
24/10:30am 29.6 26.5 3.6 19 13.3 N 9 15 5 8 1015.7 1015.1 0.0
24/10:00am 27.9 23.8 4.2 22 12.2 N 15 22 8 12 1015.9 1015.3 0.0
24/09:30am 26.0 22.4 5.0 26 10.8 N 13 20 7 11 1015.9 1015.3 0.0
24/09:00am 23.4 21.2 5.3 31 9.2 N 6 9 3 5 1015.8 1015.2 0.0
24/08:30am 23.0 19.5 5.4 32 9.0 N 13 20 7 11 1015.8 1015.2 0.0
24/08:00am 22.2 20.8 5.6 34 8.4 NE 2 6 1 3 1015.8 1015.2 0.0
24/07:30am 19.8 17.5 5.5 39 7.1 N 7 9 4 5 1015.7 1015.1 0.0
24/07:00am 16.8 13.9 4.8 45 5.8 N 9 11 5 6 1015.2 1014.6 0.0
24/06:30am 15.2 12.6 4.0 47 5.2 N 7 7 4 4 1014.9 1014.3 0.0
24/06:00am 14.0 11.7 2.6 46 5.1 NW 4 6 2 3 1014.3 1013.7 0.0
24/05:30am 14.1 12.5 2.4 45 5.3 CALM 0 0 0 0 1013.9 1013.3 0.0
24/05:00am 13.6 11.5 1.6 44 5.3 NE 2 6 1 3 1013.7 1013.1 0.0
24/04:30am 12.5 10.3 1.2 46 4.9 E 2 4 1 2 1013.8 1013.2 0.0
24/04:00am 13.6 11.7 2.8 48 4.9 WSW 2 2 1 1 1014.0 1013.4 0.0
24/03:30am 13.8 10.8 1.8 44 5.3 N 7 9 4 5 1013.9 1013.3 0.0
24/03:00am 14.1 11.6 1.4 42 5.6 N 4 4 2 2 1014.3 1013.7 0.0
24/02:30am 14.3 12.5 1.2 41 5.7 CALM 0 4 0 2 1014.6 1014.0 0.0
24/02:00am 15.2 12.8 2.1 41 5.9 SW 4 4 2 2 1014.9 1014.3 0.0
24/01:30am 15.1 12.6 1.6 40 6.0 SSE 4 6 2 3 1015.1 1014.5 0.0
24/01:00am 16.5 14.2 2.5 39 6.4 W 4 6 2 3 1015.6 1014.9 0.0
24/12:30am 17.4 16.0 3.3 39 6.6 CALM 0 4 0 2 1015.6 1014.9 0.0
24/12:00am 17.5 14.8 2.7 37 6.9 N 6 6 3 3 1015.6 1014.9 0.0
 
Date/Time
CDT
Temp
°C
App
Temp
°C
Dew
Point
Rel
Hum
%
Delta-T
°C
Wind Press
QNH
hPa
Press
MSL
hPa
Rain
since 9 am
mm
Dir
 
Spd
km/h
Gust
km/h
Spd
kts
Gust
kts
23/11:30pm 18.6 16.5 4.0 38 7.0 NNE 4 4 2 2 1015.7 1015.1 0.0
23/11:00pm 20.4 18.4 4.4 35 7.9 WSW 4 7 2 4 1016.0 1015.4 0.0
23/10:30pm 22.7 20.0 5.6 33 8.7 SSW 9 11 5 6 1016.2 1015.6 0.0
23/10:00pm 23.5 21.4 5.9 32 9.1 WSW 6 11 3 6 1016.1 1015.5 0.0
23/09:30pm 24.9 21.9 6.1 30 9.8 S 11 15 6 8 1015.5 1014.8 0.0
23/09:00pm 26.1 21.7 6.7 29 10.3 SW 19 24 10 13 1015.2 1014.6 0.0
23/08:30pm 27.5 22.2 3.2 21 12.2 WSW 20 33 11 18 1014.6 1014.0 0.0
23/08:00pm 28.6 22.5 0.3 16 13.6 W 22 30 12 16 1013.9 1013.3 0.0
23/07:30pm 29.7 23.5 -0.6 14 14.5 W 22 30 12 16 1013.3 1012.7 0.0
23/07:00pm 31.1 24.1 -0.5 13 15.3 W 26 32 14 17 1012.8 1012.2 0.0
23/06:30pm 32.3 24.5 -0.7 12 16.1 W 30 41 16 22 1012.3 1011.6 0.0
23/06:00pm 33.4 26.5 -2.3 10 17.0 W 24 37 13 20 1011.7 1011.1 0.0
23/05:30pm 33.9 27.7 -3.4 9 17.5 W 20 35 11 19 1011.5 1010.9 0.0
23/05:00pm 34.9 27.8 -4.2 8 18.3 W 24 35 13 19 1011.3 1010.7 0.0
23/04:30pm 34.6 30.3 -1.4 10 17.6 NW 11 19 6 10 1011.4 1010.8 0.0
23/04:00pm 34.9 28.9 -1.2 10 17.7 W 20 35 11 19 1011.6 1011.0 0.0
23/03:30pm 34.6 28.4 -0.1 11 17.3 WNW 22 35 12 19 1012.1 1011.4 0.0
23/03:00pm 34.0 28.9 0.6 12 16.8 WNW 17 26 9 14 1012.6 1011.9 0.0
23/02:30pm 32.7 27.4 -0.4 12 16.2 W 17 32 9 17 1013.1 1012.5 0.0
23/02:00pm 31.4 28.2 5.0 19 14.0 WSW 11 20 6 11 1013.5 1012.9 0.0
23/01:30pm 30.1 27.9 6.1 22 12.9 S 7 13 4 7 1014.2 1013.6 0.0
23/01:00pm 28.9 26.9 6.3 24 12.1 S 6 9 3 5 1014.7 1014.1 0.0
23/12:30pm 27.6 25.7 6.9 27 11.1 SW 6 9 3 5 1015.1 1014.5 0.0
23/12:00pm 26.0 24.6 7.1 30 10.1 S 4 9 2 5 1015.6 1014.9 0.0
23/11:30am 25.2 23.6 7.8 33 9.4 E 6 11 3 6 1016.1 1015.5 0.0
23/11:00am 23.2 21.1 8.1 38 8.1 SSE 9 13 5 7 1016.7 1016.1 0.0
23/10:30am 21.7 20.1 8.6 43 7.0 S 7 13 4 7 1017.0 1016.4 0.0
23/10:00am 20.5 18.7 9.4 49 6.0 S 9 15 5 8 1017.2 1016.6 0.0
23/09:30am 18.9 17.1 9.4 54 5.1 S 9 15 5 8 1017.4 1016.8 0.0
23/09:00am 18.1 16.2 9.2 56 4.7 S 9 15 5 8 1017.4 1016.8 0.0
23/08:30am 17.1 15.6 9.0 59 4.2 S 7 11 4 6 1017.6 1017.0 0.0
23/08:00am 16.0 14.0 8.7 62 3.8 S 9 15 5 8 1017.4 1016.8 0.0
23/07:30am 14.7 13.8 7.7 63 3.5 SSE 2 7 1 4 1017.2 1016.6 0.0
23/07:00am 11.9 10.8 5.3 64 3.1 CALM 0 0 0 0 1017.3 1016.7 0.0
23/06:30am 11.3 9.4 4.7 64 3.0 SW 4 6 2 3 1017.0 1016.4 0.0
23/06:00am 12.0 9.4 5.9 66 2.9 SW 9 11 5 6 1016.8 1016.2 0.0
23/05:30am 12.3 10.8 5.0 61 3.4 S 2 4 1 2 1016.5 1015.9 0.0
23/05:00am 13.6 12.8 6.5 62 3.5 CALM 0 0 0 0 1016.3 1015.7 0.0
23/04:30am 14.5 12.4 6.8 60 3.8 S 7 9 4 5 1016.3 1015.7 0.0
23/04:00am 15.1 12.7 7.2 59 4.0 S 9 11 5 6 1016.2 1015.6 0.0
23/03:30am 15.4 13.5 6.7 56 4.3 S 6 7 3 4 1016.3 1015.7 0.0
23/03:00am 16.5 14.1 6.9 53 4.8 S 9 11 5 6 1016.4 1015.8 0.0
23/02:30am 16.4 14.0 5.1 47 5.5 S 7 9 4 5 1016.7 1016.1 0.0
23/02:00am 17.1 14.8 4.8 44 5.9 S 6 9 3 5 1016.9 1016.3 0.0
23/01:30am 19.2 16.4 5.3 40 6.9 SSE 9 17 5 9 1017.1 1016.5 0.0
23/01:00am 19.7 16.2 5.4 39 7.1 SSE 13 17 7 9 1017.3 1016.7 0.0
23/12:30am 19.8 17.1 5.5 39 7.1 S 9 11 5 6 1017.4 1016.8 0.0
23/12:00am 21.0 18.0 6.2 38 7.5 S 11 13 6 7 1017.4 1016.8 0.0
 
Date/Time
CDT
Temp
°C
App
Temp
°C
Dew
Point
Rel
Hum
%
Delta-T
°C
Wind Press
QNH
hPa
Press
MSL
hPa
Rain
since 9 am
mm
Dir
 
Spd
km/h
Gust
km/h
Spd
kts
Gust
kts
22/11:30pm 22.0 19.1 6.3 36 8.1 S 11 15 6 8 1017.5 1016.9 0.0
22/11:00pm 23.1 19.4 6.4 34 8.7 S 15 20 8 11 1017.6 1017.0 0.0
22/10:30pm 23.9 19.7 5.8 31 9.3 S 17 28 9 15 1017.5 1016.9 0.0
22/10:00pm 24.2 20.7 5.5 30 9.6 SSW 13 19 7 10 1017.4 1016.8 0.0
22/09:30pm 25.1 21.8 6.3 30 9.8 SSW 13 20 7 11 1017.3 1016.7 0.0
22/09:00pm 26.0 21.6 6.6 29 10.3 SSW 19 24 10 13 1017.1 1016.5 0.0
22/08:30pm 27.3 23.0 7.2 28 10.8 SSW 19 28 10 15 1016.8 1016.2 0.0
22/08:00pm 28.6 23.4 7.2 26 11.6 SSW 24 35 13 19 1015.9 1015.3 0.0
22/07:30pm 30.4 25.1 7.0 23 12.8 SW 24 32 13 17 1015.1 1014.5 0.0
22/07:00pm 32.3 25.2 3.3 16 15.1 SW 30 39 16 21 1014.4 1013.8 0.0
22/06:30pm 34.1 27.5 1.8 13 16.5 WSW 26 37 14 20 1013.8 1013.2 0.0
22/06:00pm 35.5 27.9 -2.2 9 18.3 WNW 28 37 15 20 1013.5 1012.9 0.0
22/05:30pm 36.6 28.7 -1.4 9 18.8 W 30 41 16 22 1013.4 1012.8 0.0
22/05:09pm 36.6 29.1 -1.4 9 18.8 WNW 28 48 15 26 1013.3 1012.7 0.0
22/05:00pm 36.7 28.5 -1.3 9 18.8 W 32 50 17 27 1013.1 1012.5 0.0
22/04:59pm 36.8 28.9 -1.2 9 18.9 W 30 50 16 27 1013.1 1012.5 0.0
22/04:30pm 36.0 29.6 -1.8 9 18.5 NW 22 39 12 21 1013.3 1012.7 0.0

Other Formats:

Comma delimited format used in spreadsheet applications
http://www.bom.gov.au/fwo/IDS60801/IDS60801.94684.axf

JavaScript Object Notation format (JSON) in row-major order
http://www.bom.gov.au/fwo/IDS60801/IDS60801.94684.json